Home > Products > Valid Products > ESP

000
FGUS64 KORN 172012
ESPORN
EXTENDED STREAMFLOW PREDICTION
NATIONAL WEATHER SERVICE RIVER FORECAST CENTER, SLIDELL, LA
1410 PM CST WED DEC 17 2014

   DATE   CPGM7 CIRI2 NMDM7 TPTT1 CRTM7 OSGA4 MEMT1 TRPM6 HEEA4
12-18-14   14.6  21.9  12.5  16.0  16.0  10.7  12.1  24.0  21.1
12-19-14   14.4  19.9  10.4  13.8  14.4   8.7   9.8  21.5  18.8
12-20-14   14.3  19.2   8.9  12.0  13.4   7.2   8.1  19.7  16.7
12-21-14   14.4  18.5   8.2  11.2  12.7   6.1   6.9  18.3  15.1
12-22-14   14.3  19.2   8.2  10.5  12.4   5.6   6.2  17.3  14.1
12-23-14   14.1  18.8   8.6  11.1  12.6   5.5   5.9  16.9  13.4
12-24-14   13.6  17.7   7.8  10.9  12.4   5.7   6.0  16.8  13.1
12-25-14   13.2  16.6   6.7   9.9  11.3   5.0   5.9  16.9  13.2
12-26-14   13.0  16.0   5.8   8.9  10.4   3.9   4.8  16.2  13.1
12-27-14   13.0  15.5   5.3   8.3   9.6   2.8   3.9  15.3  12.1
12-28-14   13.0  15.0   4.9   7.8   8.9   2.1   3.0  14.3  11.3
12-29-14   13.0  14.7   4.4   7.3   8.5   1.5   2.3  13.7  10.5
12-30-14   12.9  14.5   4.2   7.1   8.2   1.1   1.8  13.1   9.9
12-31-14   12.6  14.3   3.9   6.8   8.0   0.8   1.5  12.7   9.4
01-01-15   12.2  14.2   3.8   6.6   7.9   0.7   1.3  12.5   9.2
01-02-15   12.0  14.1   3.7   6.6   7.7   0.6   1.2  12.3   9.0
01-03-15   11.9  14.0   3.6   6.5   7.6   0.6   1.2  12.3   8.9
01-04-15   11.6  13.9   3.5   6.4   7.5   0.5   1.1  12.2   8.8
01-05-15   11.4  13.7   3.4   6.3   7.4   0.5   1.1  12.1   8.7
01-06-15   10.9  13.6   3.2   6.1   7.2   0.4   1.0  12.1   8.7
01-07-15   10.5  13.4   3.0   6.0   7.0   0.3   1.0  12.0   8.6
01-08-15   10.0  13.2   2.8   5.8   6.8   0.2   0.9  12.0   8.6
01-09-15    9.5  12.9   2.6   5.5   6.5   0.0   0.7  11.8   8.5
01-10-15    9.1  12.7   2.4   5.3   6.2  -0.1   0.5  11.6   8.3
01-11-15    8.8  12.5   2.1   5.1   5.9  -0.4   0.3  11.5   8.1
01-12-15    8.5  12.3   1.9   4.9   5.7  -0.6   0.1  11.3   7.9
01-13-15    8.3  12.1   1.7   4.8   5.5  -0.8   0.0  11.0   7.7
01-14-15    8.1  12.0   1.6   4.6   5.4  -0.9  -0.2  10.9   7.5

   DATE   ARSA4 GEEM6 VCKM6 NTZM6 RRLL1 BTRL1 DONL1 RRVL1 NORL1
12-18-14   19.3  30.6  25.7  31.6  33.2  17.9  10.4   7.3   4.9
12-19-14   18.0  30.0  25.7  32.2  33.9  18.7  11.0   7.7   5.1
12-20-14   16.4  28.4  25.3  32.2  34.4  19.3  11.5   8.1   5.4
12-21-14   14.8  26.9  24.2  31.8  34.3  19.6  11.8   8.4   5.6
12-22-14   13.2  25.3  23.0  30.8  33.8  19.4  11.8   8.5   5.7
12-23-14   11.8  23.9  21.8  29.6  32.7  18.8  11.6   8.4   5.8
12-24-14   10.7  22.6  20.5  28.4  31.5  17.8  11.0   8.1   5.6
12-25-14   10.0  21.8  19.6  27.3  30.3  16.9  10.3   7.7   5.3
12-26-14    9.8  21.3  19.1  26.3  29.2  15.9   9.6   7.2   5.0
12-27-14    9.8  21.4  18.8  25.9  28.5  15.0   9.0   6.8   4.7
12-28-14    9.1  21.1  18.4  25.6  28.1  14.5   8.4   6.3   4.3
12-29-14    8.3  20.2  17.7  25.2  27.7  14.1   8.2   6.0   4.1
12-30-14    7.4  19.4  17.1  24.6  27.3  13.8   8.0   5.8   4.0
12-31-14    6.8  18.7  16.5  24.0  26.8  13.5   7.7   5.7   3.8
01-01-15    6.4  18.2  15.9  23.4  26.1  13.0   7.4   5.5   3.7
01-02-15    6.1  17.8  15.5  22.8  25.6  12.4   7.1   5.3   3.6
01-03-15    5.9  17.7  15.2  22.4  25.0  11.9   6.7   5.0   3.4
01-04-15    5.8  17.5  15.0  22.1  24.7  11.5   6.4   4.8   3.3
01-05-15    5.7  17.4  14.9  21.9  24.4  11.3   6.2   4.6   3.1
01-06-15    5.6  17.3  14.7  21.8  24.3  11.1   6.0   4.5   3.0
01-07-15    5.6  17.3  14.6  21.7  24.1  11.0   5.9   4.4   2.9
01-08-15    5.6  17.2  14.4  21.5  24.0  10.8   5.8   4.3   2.9
01-09-15    5.6  17.2  14.2  21.4  23.9  10.7   5.7   4.2   2.8
01-10-15    5.5  17.2  14.1  21.2  23.8  10.6   5.6   4.2   2.8
01-11-15    5.4  17.1  13.8  21.0  23.6  10.5   5.6   4.1   2.7
01-12-15    5.2  16.9  13.7  20.8  23.4  10.4   5.4   4.1   2.7
01-13-15    5.1  16.7  13.5  20.6  23.2  10.2   5.4   4.0   2.6
01-14-15    4.9  16.6  13.3  20.5  23.0  10.0   5.2   3.9   2.6

NOTE: STAGE FORECASTS ARE BASED ON FUTURE RAINFALL COVERING
THE NEXT 24 HOURS.

END ORN


$$







    US Dept of Commerce
    National Oceanic and Atmospheric Administration
    National Weather Service
    1325 East West Highway
    Silver Spring, MD 20910
    Page Author: NWS Internet Services Team
Disclaimer
Information Quality
Credits
Glossary
Privacy Policy
Freedom of Information Act (FOIA)
About Us
Career Opportunities